sensor_id;sensor_type;location;lat;lon;timestamp;P1;durP1;ratioP1;P2;durP2;ratioP2
24206;SDS011;12351;52.284;9.160;2023-08-01T00:02:23;1.25;;;0.78;;
24206;SDS011;12351;52.284;9.160;2023-08-01T00:05:14;0.70;;;0.70;;
24206;SDS011;12351;52.284;9.160;2023-08-01T00:08:04;0.70;;;0.70;;
24206;SDS011;12351;52.284;9.160;2023-08-01T00:10:52;1.33;;;0.70;;
24206;SDS011;12351;52.284;9.160;2023-08-01T00:13:42;0.90;;;0.80;;
24206;SDS011;12351;52.284;9.160;2023-08-01T00:16:33;1.13;;;0.60;;
24206;SDS011;12351;52.284;9.160;2023-08-01T00:19:21;1.53;;;0.80;;
24206;SDS011;12351;52.284;9.160;2023-08-01T00:22:12;0.70;;;0.70;;
24206;SDS011;12351;52.284;9.160;2023-08-01T00:25:02;1.80;;;0.60;;
24206;SDS011;12351;52.284;9.160;2023-08-01T00:27:51;0.80;;;0.70;;
24206;SDS011;12351;52.284;9.160;2023-08-01T00:30:40;3.58;;;0.85;;
24206;SDS011;12351;52.284;9.160;2023-08-01T00:33:33;1.07;;;0.70;;
24206;SDS011;12351;52.284;9.160;2023-08-01T00:36:22;0.67;;;0.67;;
24206;SDS011;12351;52.284;9.160;2023-08-01T00:39:10;0.67;;;0.67;;
24206;SDS011;12351;52.284;9.160;2023-08-01T00:42:01;2.08;;;0.65;;
24206;SDS011;12351;52.284;9.160;2023-08-01T00:44:51;1.13;;;0.70;;
24206;SDS011;12351;52.284;9.160;2023-08-01T00:47:39;0.80;;;0.80;;
24206;SDS011;12351;52.284;9.160;2023-08-01T00:50:30;0.90;;;0.70;;
24206;SDS011;12351;52.284;9.160;2023-08-01T00:53:19;0.70;;;0.70;;
24206;SDS011;12351;52.284;9.160;2023-08-01T00:56:09;1.17;;;0.83;;
24206;SDS011;12351;52.284;9.160;2023-08-01T00:59:00;0.70;;;0.70;;
24206;SDS011;12351;52.284;9.160;2023-08-01T01:01:51;0.80;;;0.80;;
24206;SDS011;12351;52.284;9.160;2023-08-01T01:04:40;1.00;;;1.00;;
24206;SDS011;12351;52.284;9.160;2023-08-01T01:07:29;3.33;;;0.82;;
24206;SDS011;12351;52.284;9.160;2023-08-01T01:10:20;1.40;;;0.80;;
24206;SDS011;12351;52.284;9.160;2023-08-01T01:13:13;0.90;;;0.90;;
24206;SDS011;12351;52.284;9.160;2023-08-01T01:16:03;1.33;;;0.90;;
24206;SDS011;12351;52.284;9.160;2023-08-01T01:18:53;1.70;;;0.90;;
24206;SDS011;12351;52.284;9.160;2023-08-01T01:21:43;3.15;;;1.12;;
24206;SDS011;12351;52.284;9.160;2023-08-01T01:24:36;1.50;;;0.70;;
24206;SDS011;12351;52.284;9.160;2023-08-01T01:27:28;1.70;;;0.90;;
24206;SDS011;12351;52.284;9.160;2023-08-01T01:30:18;2.77;;;0.90;;
24206;SDS011;12351;52.284;9.160;2023-08-01T01:33:11;0.73;;;0.73;;
24206;SDS011;12351;52.284;9.160;2023-08-01T01:36:02;1.27;;;0.72;;
24206;SDS011;12351;52.284;9.160;2023-08-01T01:38:52;2.22;;;0.70;;
24206;SDS011;12351;52.284;9.160;2023-08-01T01:41:39;2.30;;;0.90;;
24206;SDS011;12351;52.284;9.160;2023-08-01T01:44:30;2.75;;;0.82;;
24206;SDS011;12351;52.284;9.160;2023-08-01T01:47:19;1.92;;;0.80;;
24206;SDS011;12351;52.284;9.160;2023-08-01T01:50:08;1.15;;;1.05;;
24206;SDS011;12351;52.284;9.160;2023-08-01T01:52:58;1.27;;;0.70;;
24206;SDS011;12351;52.284;9.160;2023-08-01T01:55:49;2.15;;;0.80;;
24206;SDS011;12351;52.284;9.160;2023-08-01T01:58:38;1.47;;;0.70;;
24206;SDS011;12351;52.284;9.160;2023-08-01T02:01:27;1.73;;;0.80;;
24206;SDS011;12351;52.284;9.160;2023-08-01T02:04:18;1.00;;;0.80;;
24206;SDS011;12351;52.284;9.160;2023-08-01T02:07:10;1.03;;;0.80;;
24206;SDS011;12351;52.284;9.160;2023-08-01T02:10:01;1.15;;;0.90;;
24206;SDS011;12351;52.284;9.160;2023-08-01T02:12:53;1.25;;;0.60;;
24206;SDS011;12351;52.284;9.160;2023-08-01T02:15:43;0.70;;;0.60;;
24206;SDS011;12351;52.284;9.160;2023-08-01T02:18:34;0.60;;;0.60;;
24206;SDS011;12351;52.284;9.160;2023-08-01T02:21:23;1.72;;;0.70;;
24206;SDS011;12351;52.284;9.160;2023-08-01T02:24:14;0.60;;;0.50;;
24206;SDS011;12351;52.284;9.160;2023-08-01T02:27:03;0.57;;;0.50;;
24206;SDS011;12351;52.284;9.160;2023-08-01T02:29:56;0.40;;;0.40;;
24206;SDS011;12351;52.284;9.160;2023-08-01T02:32:46;0.47;;;0.40;;
24206;SDS011;12351;52.284;9.160;2023-08-01T02:35:37;1.90;;;0.47;;
24206;SDS011;12351;52.284;9.160;2023-08-01T02:38:27;1.03;;;0.57;;
24206;SDS011;12351;52.284;9.160;2023-08-01T02:41:17;1.67;;;0.60;;
24206;SDS011;12351;52.284;9.160;2023-08-01T02:44:10;1.20;;;0.60;;
24206;SDS011;12351;52.284;9.160;2023-08-01T02:47:00;2.12;;;0.50;;
24206;SDS011;12351;52.284;9.160;2023-08-01T02:49:51;0.80;;;0.70;;
24206;SDS011;12351;52.284;9.160;2023-08-01T02:52:41;0.50;;;0.43;;
24206;SDS011;12351;52.284;9.160;2023-08-01T02:55:30;1.85;;;0.50;;
24206;SDS011;12351;52.284;9.160;2023-08-01T02:58:19;0.50;;;0.50;;
24206;SDS011;12351;52.284;9.160;2023-08-01T03:01:10;0.77;;;0.60;;
24206;SDS011;12351;52.284;9.160;2023-08-01T03:04:00;0.77;;;0.50;;
24206;SDS011;12351;52.284;9.160;2023-08-01T03:06:55;1.85;;;0.65;;
24206;SDS011;12351;52.284;9.160;2023-08-01T03:09:45;1.70;;;0.95;;
24206;SDS011;12351;52.284;9.160;2023-08-01T03:12:39;0.88;;;0.85;;
24206;SDS011;12351;52.284;9.160;2023-08-01T03:15:28;3.02;;;0.60;;
24206;SDS011;12351;52.284;9.160;2023-08-01T03:18:18;0.70;;;0.60;;
24206;SDS011;12351;52.284;9.160;2023-08-01T03:21:10;0.70;;;0.60;;
24206;SDS011;12351;52.284;9.160;2023-08-01T03:24:01;0.77;;;0.57;;
24206;SDS011;12351;52.284;9.160;2023-08-01T03:26:51;0.70;;;0.50;;
24206;SDS011;12351;52.284;9.160;2023-08-01T03:29:42;2.17;;;0.70;;
24206;SDS011;12351;52.284;9.160;2023-08-01T03:32:32;0.73;;;0.57;;
24206;SDS011;12351;52.284;9.160;2023-08-01T03:35:22;0.63;;;0.60;;
24206;SDS011;12351;52.284;9.160;2023-08-01T03:38:12;0.77;;;0.40;;
24206;SDS011;12351;52.284;9.160;2023-08-01T03:41:00;0.57;;;0.50;;
24206;SDS011;12351;52.284;9.160;2023-08-01T03:43:50;1.98;;;0.40;;
24206;SDS011;12351;52.284;9.160;2023-08-01T03:46:41;0.95;;;0.70;;
24206;SDS011;12351;52.284;9.160;2023-08-01T03:49:32;0.50;;;0.50;;
24206;SDS011;12351;52.284;9.160;2023-08-01T03:52:22;1.17;;;0.50;;
24206;SDS011;12351;52.284;9.160;2023-08-01T03:55:14;0.57;;;0.50;;
24206;SDS011;12351;52.284;9.160;2023-08-01T03:58:03;2.15;;;0.57;;
24206;SDS011;12351;52.284;9.160;2023-08-01T04:00:52;1.47;;;0.70;;
24206;SDS011;12351;52.284;9.160;2023-08-01T04:03:43;1.60;;;0.60;;
24206;SDS011;12351;52.284;9.160;2023-08-01T04:06:33;2.55;;;0.57;;
24206;SDS011;12351;52.284;9.160;2023-08-01T04:09:24;1.62;;;0.50;;
24206;SDS011;12351;52.284;9.160;2023-08-01T04:12:12;0.90;;;0.57;;
24206;SDS011;12351;52.284;9.160;2023-08-01T04:15:03;0.90;;;0.67;;
24206;SDS011;12351;52.284;9.160;2023-08-01T04:17:54;1.00;;;0.50;;
24206;SDS011;12351;52.284;9.160;2023-08-01T04:20:44;2.37;;;0.57;;
24206;SDS011;12351;52.284;9.160;2023-08-01T04:23:35;1.87;;;0.62;;
24206;SDS011;12351;52.284;9.160;2023-08-01T04:26:24;0.67;;;0.60;;
24206;SDS011;12351;52.284;9.160;2023-08-01T04:29:15;0.90;;;0.60;;
24206;SDS011;12351;52.284;9.160;2023-08-01T04:32:05;2.35;;;0.40;;
24206;SDS011;12351;52.284;9.160;2023-08-01T04:34:55;1.60;;;1.00;;
24206;SDS011;12351;52.284;9.160;2023-08-01T04:37:43;1.22;;;0.68;;
24206;SDS011;12351;52.284;9.160;2023-08-01T04:40:35;0.60;;;0.60;;
24206;SDS011;12351;52.284;9.160;2023-08-01T04:43:25;2.05;;;0.70;;
24206;SDS011;12351;52.284;9.160;2023-08-01T04:46:17;1.55;;;0.90;;
24206;SDS011;12351;52.284;9.160;2023-08-01T04:49:08;1.45;;;0.80;;
24206;SDS011;12351;52.284;9.160;2023-08-01T04:51:59;1.17;;;0.70;;
24206;SDS011;12351;52.284;9.160;2023-08-01T04:54:48;1.00;;;0.70;;
24206;SDS011;12351;52.284;9.160;2023-08-01T04:57:37;1.10;;;0.70;;
24206;SDS011;12351;52.284;9.160;2023-08-01T05:00:28;1.00;;;0.70;;
24206;SDS011;12351;52.284;9.160;2023-08-01T05:03:17;0.87;;;0.73;;
24206;SDS011;12351;52.284;9.160;2023-08-01T05:06:08;0.80;;;0.70;;
24206;SDS011;12351;52.284;9.160;2023-08-01T05:08:56;1.22;;;0.95;;
24206;SDS011;12351;52.284;9.160;2023-08-01T05:11:49;1.75;;;1.00;;
24206;SDS011;12351;52.284;9.160;2023-08-01T05:14:38;1.02;;;0.98;;
24206;SDS011;12351;52.284;9.160;2023-08-01T05:17:28;1.10;;;0.90;;
24206;SDS011;12351;52.284;9.160;2023-08-01T05:20:21;1.45;;;1.27;;
24206;SDS011;12351;52.284;9.160;2023-08-01T05:23:11;2.27;;;1.30;;
24206;SDS011;12351;52.284;9.160;2023-08-01T05:26:00;4.03;;;1.47;;
24206;SDS011;12351;52.284;9.160;2023-08-01T05:28:52;1.82;;;1.42;;
24206;SDS011;12351;52.284;9.160;2023-08-01T05:31:42;2.90;;;1.95;;
24206;SDS011;12351;52.284;9.160;2023-08-01T05:34:36;2.37;;;1.90;;
24206;SDS011;12351;52.284;9.160;2023-08-01T05:37:28;2.45;;;2.25;;
24206;SDS011;12351;52.284;9.160;2023-08-01T05:40:18;2.33;;;2.12;;
24206;SDS011;12351;52.284;9.160;2023-08-01T05:43:09;2.33;;;2.12;;
24206;SDS011;12351;52.284;9.160;2023-08-01T05:46:00;3.52;;;2.42;;
24206;SDS011;12351;52.284;9.160;2023-08-01T05:48:47;2.92;;;2.22;;
24206;SDS011;12351;52.284;9.160;2023-08-01T05:51:39;4.05;;;2.70;;
24206;SDS011;12351;52.284;9.160;2023-08-01T05:54:28;3.10;;;2.50;;
24206;SDS011;12351;52.284;9.160;2023-08-01T05:57:19;3.55;;;2.55;;
24206;SDS011;12351;52.284;9.160;2023-08-01T06:00:09;3.35;;;2.42;;
24206;SDS011;12351;52.284;9.160;2023-08-01T06:03:01;3.60;;;2.30;;
24206;SDS011;12351;52.284;9.160;2023-08-01T06:05:52;5.12;;;2.52;;
24206;SDS011;12351;52.284;9.160;2023-08-01T06:08:42;4.08;;;2.50;;
24206;SDS011;12351;52.284;9.160;2023-08-01T06:11:32;4.22;;;2.42;;
24206;SDS011;12351;52.284;9.160;2023-08-01T06:14:24;5.70;;;3.17;;
24206;SDS011;12351;52.284;9.160;2023-08-01T06:17:16;5.33;;;2.62;;
24206;SDS011;12351;52.284;9.160;2023-08-01T06:20:05;4.37;;;2.87;;
24206;SDS011;12351;52.284;9.160;2023-08-01T06:22:56;5.10;;;3.20;;
24206;SDS011;12351;52.284;9.160;2023-08-01T06:25:48;4.58;;;3.22;;
24206;SDS011;12351;52.284;9.160;2023-08-01T06:28:38;4.72;;;3.45;;
24206;SDS011;12351;52.284;9.160;2023-08-01T06:31:30;5.50;;;3.70;;
24206;SDS011;12351;52.284;9.160;2023-08-01T06:34:19;6.35;;;3.45;;
24206;SDS011;12351;52.284;9.160;2023-08-01T06:37:12;5.08;;;3.77;;
24206;SDS011;12351;52.284;9.160;2023-08-01T06:40:01;7.95;;;4.20;;
24206;SDS011;12351;52.284;9.160;2023-08-01T06:42:51;6.35;;;3.98;;
24206;SDS011;12351;52.284;9.160;2023-08-01T06:45:40;6.72;;;4.05;;
24206;SDS011;12351;52.284;9.160;2023-08-01T06:48:32;5.87;;;4.55;;
24206;SDS011;12351;52.284;9.160;2023-08-01T06:51:22;6.25;;;4.60;;
24206;SDS011;12351;52.284;9.160;2023-08-01T06:54:14;8.23;;;4.28;;
24206;SDS011;12351;52.284;9.160;2023-08-01T06:57:04;9.85;;;4.30;;
24206;SDS011;12351;52.284;9.160;2023-08-01T06:59:54;6.42;;;4.37;;
24206;SDS011;12351;52.284;9.160;2023-08-01T07:02:46;7.30;;;4.28;;
24206;SDS011;12351;52.284;9.160;2023-08-01T07:05:35;8.58;;;3.95;;
24206;SDS011;12351;52.284;9.160;2023-08-01T07:08:26;6.00;;;4.12;;
24206;SDS011;12351;52.284;9.160;2023-08-01T07:11:16;5.72;;;3.80;;
24206;SDS011;12351;52.284;9.160;2023-08-01T07:14:05;6.33;;;3.55;;
24206;SDS011;12351;52.284;9.160;2023-08-01T07:16:54;7.47;;;3.45;;
24206;SDS011;12351;52.284;9.160;2023-08-01T07:19:46;7.62;;;4.00;;
24206;SDS011;12351;52.284;9.160;2023-08-01T07:22:34;7.03;;;3.65;;
24206;SDS011;12351;52.284;9.160;2023-08-01T07:25:26;6.08;;;3.40;;
24206;SDS011;12351;52.284;9.160;2023-08-01T07:28:15;6.75;;;3.55;;
24206;SDS011;12351;52.284;9.160;2023-08-01T07:31:06;16.85;;;10.90;;
24206;SDS011;12351;52.284;9.160;2023-08-01T07:33:55;6.65;;;4.00;;
24206;SDS011;12351;52.284;9.160;2023-08-01T07:36:43;8.85;;;3.85;;
24206;SDS011;12351;52.284;9.160;2023-08-01T07:39:35;7.25;;;4.30;;
24206;SDS011;12351;52.284;9.160;2023-08-01T07:42:26;7.28;;;3.65;;
24206;SDS011;12351;52.284;9.160;2023-08-01T07:45:18;7.60;;;3.83;;
24206;SDS011;12351;52.284;9.160;2023-08-01T07:48:08;8.65;;;3.80;;
24206;SDS011;12351;52.284;9.160;2023-08-01T07:50:57;5.87;;;3.30;;
24206;SDS011;12351;52.284;9.160;2023-08-01T07:53:45;8.10;;;3.05;;
24206;SDS011;12351;52.284;9.160;2023-08-01T07:56:36;8.83;;;3.85;;
24206;SDS011;12351;52.284;9.160;2023-08-01T07:59:23;8.05;;;4.00;;
24206;SDS011;12351;52.284;9.160;2023-08-01T08:02:17;9.70;;;4.10;;
24206;SDS011;12351;52.284;9.160;2023-08-01T08:05:06;8.78;;;3.98;;
24206;SDS011;12351;52.284;9.160;2023-08-01T08:07:58;7.00;;;4.28;;
24206;SDS011;12351;52.284;9.160;2023-08-01T08:10:48;8.10;;;4.05;;
24206;SDS011;12351;52.284;9.160;2023-08-01T08:13:38;6.28;;;4.12;;
24206;SDS011;12351;52.284;9.160;2023-08-01T08:16:30;6.40;;;3.75;;
24206;SDS011;12351;52.284;9.160;2023-08-01T08:19:20;5.33;;;3.35;;
24206;SDS011;12351;52.284;9.160;2023-08-01T08:22:10;4.85;;;3.22;;
24206;SDS011;12351;52.284;9.160;2023-08-01T08:25:00;7.12;;;3.40;;
24206;SDS011;12351;52.284;9.160;2023-08-01T08:27:52;7.45;;;3.37;;
24206;SDS011;12351;52.284;9.160;2023-08-01T08:30:42;4.37;;;2.80;;
24206;SDS011;12351;52.284;9.160;2023-08-01T08:33:33;6.50;;;2.67;;
24206;SDS011;12351;52.284;9.160;2023-08-01T08:36:21;5.72;;;2.30;;
24206;SDS011;12351;52.284;9.160;2023-08-01T08:39:11;5.10;;;2.98;;
24206;SDS011;12351;52.284;9.160;2023-08-01T08:42:01;6.03;;;2.60;;
24206;SDS011;12351;52.284;9.160;2023-08-01T08:44:51;5.10;;;2.10;;
24206;SDS011;12351;52.284;9.160;2023-08-01T08:47:41;5.85;;;2.33;;
24206;SDS011;12351;52.284;9.160;2023-08-01T08:50:32;4.35;;;2.20;;
24206;SDS011;12351;52.284;9.160;2023-08-01T08:53:21;4.47;;;2.37;;
24206;SDS011;12351;52.284;9.160;2023-08-01T08:56:09;5.20;;;2.35;;
24206;SDS011;12351;52.284;9.160;2023-08-01T08:59:00;3.17;;;2.08;;
24206;SDS011;12351;52.284;9.160;2023-08-01T09:01:50;3.83;;;2.10;;
24206;SDS011;12351;52.284;9.160;2023-08-01T09:04:42;4.20;;;2.30;;
24206;SDS011;12351;52.284;9.160;2023-08-01T09:07:32;4.80;;;2.33;;
24206;SDS011;12351;52.284;9.160;2023-08-01T09:10:23;4.78;;;2.20;;
24206;SDS011;12351;52.284;9.160;2023-08-01T09:13:14;3.57;;;2.23;;
24206;SDS011;12351;52.284;9.160;2023-08-01T09:16:04;4.70;;;2.33;;
24206;SDS011;12351;52.284;9.160;2023-08-01T09:18:57;5.90;;;2.45;;
24206;SDS011;12351;52.284;9.160;2023-08-01T09:21:48;4.15;;;2.30;;
24206;SDS011;12351;52.284;9.160;2023-08-01T09:24:49;4.97;;;2.02;;
24206;SDS011;12351;52.284;9.160;2023-08-01T09:27:32;4.90;;;2.08;;
24206;SDS011;12351;52.284;9.160;2023-08-01T09:30:19;3.87;;;1.73;;
24206;SDS011;12351;52.284;9.160;2023-08-01T09:33:11;5.20;;;2.20;;
24206;SDS011;12351;52.284;9.160;2023-08-01T09:36:02;5.70;;;2.37;;
24206;SDS011;12351;52.284;9.160;2023-08-01T09:38:57;4.28;;;2.20;;
24206;SDS011;12351;52.284;9.160;2023-08-01T09:41:45;4.42;;;2.17;;
24206;SDS011;12351;52.284;9.160;2023-08-01T09:44:34;5.03;;;1.82;;
24206;SDS011;12351;52.284;9.160;2023-08-01T09:47:25;3.67;;;2.20;;
24206;SDS011;12351;52.284;9.160;2023-08-01T09:53:08;6.28;;;2.62;;
24206;SDS011;12351;52.284;9.160;2023-08-01T09:55:59;3.72;;;1.90;;
24206;SDS011;12351;52.284;9.160;2023-08-01T09:58:51;3.67;;;1.92;;
24206;SDS011;12351;52.284;9.160;2023-08-01T10:01:45;3.87;;;1.85;;
24206;SDS011;12351;52.284;9.160;2023-08-01T10:04:35;3.95;;;1.95;;
24206;SDS011;12351;52.284;9.160;2023-08-01T10:07:26;6.42;;;1.80;;
24206;SDS011;12351;52.284;9.160;2023-08-01T10:10:18;5.17;;;2.27;;
24206;SDS011;12351;52.284;9.160;2023-08-01T10:13:07;4.62;;;2.15;;
24206;SDS011;12351;52.284;9.160;2023-08-01T10:15:59;3.20;;;2.02;;
24206;SDS011;12351;52.284;9.160;2023-08-01T10:18:48;3.50;;;2.00;;
24206;SDS011;12351;52.284;9.160;2023-08-01T10:21:41;2.77;;;1.90;;
24206;SDS011;12351;52.284;9.160;2023-08-01T10:24:30;3.67;;;1.82;;
24206;SDS011;12351;52.284;9.160;2023-08-01T10:27:23;3.08;;;1.92;;
24206;SDS011;12351;52.284;9.160;2023-08-01T10:30:12;5.10;;;2.15;;
24206;SDS011;12351;52.284;9.160;2023-08-01T10:33:06;3.70;;;1.60;;
24206;SDS011;12351;52.284;9.160;2023-08-01T10:35:54;2.58;;;1.60;;
24206;SDS011;12351;52.284;9.160;2023-08-01T10:38:47;2.25;;;1.42;;
24206;SDS011;12351;52.284;9.160;2023-08-01T10:41:37;3.10;;;1.50;;
24206;SDS011;12351;52.284;9.160;2023-08-01T10:44:26;4.20;;;1.70;;
24206;SDS011;12351;52.284;9.160;2023-08-01T10:53:02;4.00;;;1.85;;
24206;SDS011;12351;52.284;9.160;2023-08-01T10:55:53;6.60;;;2.30;;
24206;SDS011;12351;52.284;9.160;2023-08-01T10:58:45;4.65;;;2.30;;
24206;SDS011;12351;52.284;9.160;2023-08-01T11:01:42;3.67;;;2.40;;
24206;SDS011;12351;52.284;9.160;2023-08-01T11:04:26;6.17;;;2.37;;
24206;SDS011;12351;52.284;9.160;2023-08-01T11:07:16;5.17;;;2.30;;
24206;SDS011;12351;52.284;9.160;2023-08-01T11:12:59;3.20;;;1.80;;
24206;SDS011;12351;52.284;9.160;2023-08-01T11:15:49;2.42;;;1.80;;
24206;SDS011;12351;52.284;9.160;2023-08-01T11:18:42;2.67;;;1.75;;
24206;SDS011;12351;52.284;9.160;2023-08-01T11:21:33;2.65;;;1.90;;
24206;SDS011;12351;52.284;9.160;2023-08-01T11:24:21;3.42;;;1.85;;
24206;SDS011;12351;52.284;9.160;2023-08-01T11:27:12;3.87;;;1.98;;
24206;SDS011;12351;52.284;9.160;2023-08-01T11:30:01;3.12;;;1.80;;
24206;SDS011;12351;52.284;9.160;2023-08-01T11:32:50;3.65;;;2.20;;
24206;SDS011;12351;52.284;9.160;2023-08-01T11:35:40;6.33;;;2.10;;
24206;SDS011;12351;52.284;9.160;2023-08-01T11:38:34;2.62;;;2.25;;
24206;SDS011;12351;52.284;9.160;2023-08-01T11:41:23;6.08;;;2.80;;
24206;SDS011;12351;52.284;9.160;2023-08-01T11:44:15;4.75;;;2.27;;
24206;SDS011;12351;52.284;9.160;2023-08-01T11:47:10;4.37;;;2.40;;
24206;SDS011;12351;52.284;9.160;2023-08-01T11:49:59;5.25;;;2.60;;
24206;SDS011;12351;52.284;9.160;2023-08-01T11:52:50;3.90;;;2.45;;
24206;SDS011;12351;52.284;9.160;2023-08-01T11:55:39;4.83;;;2.47;;
24206;SDS011;12351;52.284;9.160;2023-08-01T11:58:29;5.30;;;2.50;;
24206;SDS011;12351;52.284;9.160;2023-08-01T12:01:22;4.55;;;2.15;;
24206;SDS011;12351;52.284;9.160;2023-08-01T12:07:11;3.67;;;1.70;;
24206;SDS011;12351;52.284;9.160;2023-08-01T12:12:45;3.40;;;2.30;;
24206;SDS011;12351;52.284;9.160;2023-08-01T12:15:34;3.85;;;2.08;;
24206;SDS011;12351;52.284;9.160;2023-08-01T12:18:24;4.17;;;2.37;;
24206;SDS011;12351;52.284;9.160;2023-08-01T12:21:17;3.83;;;2.50;;
24206;SDS011;12351;52.284;9.160;2023-08-01T12:24:07;3.47;;;2.20;;
24206;SDS011;12351;52.284;9.160;2023-08-01T12:26:57;4.10;;;2.37;;
24206;SDS011;12351;52.284;9.160;2023-08-01T12:29:49;7.03;;;2.17;;
24206;SDS011;12351;52.284;9.160;2023-08-01T12:32:39;6.03;;;1.95;;
24206;SDS011;12351;52.284;9.160;2023-08-01T12:35:33;6.00;;;2.17;;
24206;SDS011;12351;52.284;9.160;2023-08-01T12:38:22;5.35;;;3.08;;
24206;SDS011;12351;52.284;9.160;2023-08-01T12:41:14;4.05;;;2.20;;
24206;SDS011;12351;52.284;9.160;2023-08-01T12:44:04;4.83;;;2.22;;
24206;SDS011;12351;52.284;9.160;2023-08-01T12:46:56;3.87;;;1.98;;
24206;SDS011;12351;52.284;9.160;2023-08-01T12:49:49;6.42;;;2.47;;
24206;SDS011;12351;52.284;9.160;2023-08-01T12:52:40;3.83;;;2.40;;
24206;SDS011;12351;52.284;9.160;2023-08-01T12:55:31;6.25;;;2.45;;
24206;SDS011;12351;52.284;9.160;2023-08-01T12:58:21;6.15;;;2.50;;
24206;SDS011;12351;52.284;9.160;2023-08-01T13:01:11;6.12;;;2.83;;
24206;SDS011;12351;52.284;9.160;2023-08-01T13:04:01;4.45;;;2.83;;
24206;SDS011;12351;52.284;9.160;2023-08-01T13:06:53;5.62;;;2.92;;
24206;SDS011;12351;52.284;9.160;2023-08-01T13:09:41;3.12;;;1.90;;
24206;SDS011;12351;52.284;9.160;2023-08-01T13:12:31;2.45;;;1.37;;
24206;SDS011;12351;52.284;9.160;2023-08-01T13:15:21;4.62;;;1.60;;
24206;SDS011;12351;52.284;9.160;2023-08-01T13:18:13;4.47;;;1.37;;
24206;SDS011;12351;52.284;9.160;2023-08-01T13:21:05;2.77;;;1.45;;
24206;SDS011;12351;52.284;9.160;2023-08-01T13:23:52;3.85;;;1.55;;
24206;SDS011;12351;52.284;9.160;2023-08-01T13:26:44;4.30;;;1.45;;
24206;SDS011;12351;52.284;9.160;2023-08-01T13:29:33;3.85;;;1.70;;
24206;SDS011;12351;52.284;9.160;2023-08-01T13:32:24;4.22;;;1.50;;
24206;SDS011;12351;52.284;9.160;2023-08-01T13:35:15;3.40;;;1.50;;
24206;SDS011;12351;52.284;9.160;2023-08-01T13:38:06;3.87;;;1.70;;
24206;SDS011;12351;52.284;9.160;2023-08-01T13:41:00;3.00;;;1.60;;
24206;SDS011;12351;52.284;9.160;2023-08-01T13:43:49;3.80;;;1.20;;
24206;SDS011;12351;52.284;9.160;2023-08-01T13:46:41;3.10;;;0.90;;
24206;SDS011;12351;52.284;9.160;2023-08-01T13:49:31;1.50;;;1.10;;
24206;SDS011;12351;52.284;9.160;2023-08-01T13:52:20;2.65;;;1.00;;
24206;SDS011;12351;52.284;9.160;2023-08-01T13:55:09;1.70;;;1.12;;
24206;SDS011;12351;52.284;9.160;2023-08-01T13:57:59;2.40;;;1.05;;
24206;SDS011;12351;52.284;9.160;2023-08-01T14:00:50;2.85;;;1.17;;
24206;SDS011;12351;52.284;9.160;2023-08-01T14:03:40;2.22;;;1.20;;
24206;SDS011;12351;52.284;9.160;2023-08-01T14:06:33;2.15;;;1.17;;
24206;SDS011;12351;52.284;9.160;2023-08-01T14:09:23;2.40;;;1.32;;
24206;SDS011;12351;52.284;9.160;2023-08-01T14:12:14;1.50;;;1.10;;
24206;SDS011;12351;52.284;9.160;2023-08-01T14:15:05;3.52;;;1.30;;
24206;SDS011;12351;52.284;9.160;2023-08-01T14:17:58;8.40;;;1.25;;
24206;SDS011;12351;52.284;9.160;2023-08-01T14:20:47;2.87;;;1.27;;
24206;SDS011;12351;52.284;9.160;2023-08-01T14:23:37;2.98;;;1.10;;
24206;SDS011;12351;52.284;9.160;2023-08-01T14:26:25;1.40;;;1.07;;
24206;SDS011;12351;52.284;9.160;2023-08-01T14:29:18;2.92;;;1.00;;
24206;SDS011;12351;52.284;9.160;2023-08-01T14:32:07;3.93;;;1.10;;
24206;SDS011;12351;52.284;9.160;2023-08-01T14:34:59;2.23;;;0.90;;
24206;SDS011;12351;52.284;9.160;2023-08-01T14:37:50;3.57;;;1.40;;
24206;SDS011;12351;52.284;9.160;2023-08-01T14:40:40;1.93;;;0.90;;
24206;SDS011;12351;52.284;9.160;2023-08-01T14:43:30;1.92;;;1.02;;
24206;SDS011;12351;52.284;9.160;2023-08-01T14:46:19;3.13;;;1.20;;
24206;SDS011;12351;52.284;9.160;2023-08-01T14:49:10;2.63;;;1.10;;
24206;SDS011;12351;52.284;9.160;2023-08-01T14:52:02;3.40;;;1.22;;
24206;SDS011;12351;52.284;9.160;2023-08-01T14:54:52;2.43;;;1.10;;
24206;SDS011;12351;52.284;9.160;2023-08-01T14:57:43;2.43;;;1.20;;
24206;SDS011;12351;52.284;9.160;2023-08-01T15:00:30;2.77;;;1.47;;
24206;SDS011;12351;52.284;9.160;2023-08-01T15:03:18;1.67;;;0.77;;
24206;SDS011;12351;52.284;9.160;2023-08-01T15:06:05;3.77;;;1.00;;
24206;SDS011;12351;52.284;9.160;2023-08-01T15:08:53;3.23;;;0.83;;
24206;SDS011;12351;52.284;9.160;2023-08-01T15:11:40;3.57;;;1.00;;
24206;SDS011;12351;52.284;9.160;2023-08-01T15:14:27;2.90;;;1.10;;
24206;SDS011;12351;52.284;9.160;2023-08-01T15:17:14;2.10;;;1.10;;
24206;SDS011;12351;52.284;9.160;2023-08-01T15:20:01;1.73;;;0.90;;
24206;SDS011;12351;52.284;9.160;2023-08-01T15:22:48;1.80;;;0.93;;
24206;SDS011;12351;52.284;9.160;2023-08-01T15:25:35;1.93;;;0.90;;
24206;SDS011;12351;52.284;9.160;2023-08-01T15:28:22;2.03;;;0.93;;
24206;SDS011;12351;52.284;9.160;2023-08-01T15:31:10;2.10;;;0.90;;
24206;SDS011;12351;52.284;9.160;2023-08-01T15:33:57;2.60;;;0.83;;
24206;SDS011;12351;52.284;9.160;2023-08-01T15:36:43;3.20;;;1.63;;
24206;SDS011;12351;52.284;9.160;2023-08-01T15:39:32;3.10;;;1.00;;
24206;SDS011;12351;52.284;9.160;2023-08-01T15:42:19;1.93;;;1.10;;
24206;SDS011;12351;52.284;9.160;2023-08-01T15:45:06;3.83;;;1.10;;
24206;SDS011;12351;52.284;9.160;2023-08-01T15:47:53;1.73;;;0.87;;
24206;SDS011;12351;52.284;9.160;2023-08-01T15:50:41;2.20;;;1.10;;
24206;SDS011;12351;52.284;9.160;2023-08-01T15:53:28;2.93;;;1.00;;
24206;SDS011;12351;52.284;9.160;2023-08-01T15:56:15;2.70;;;1.17;;
24206;SDS011;12351;52.284;9.160;2023-08-01T15:59:03;2.43;;;1.20;;
24206;SDS011;12351;52.284;9.160;2023-08-01T16:01:50;2.20;;;1.10;;
24206;SDS011;12351;52.284;9.160;2023-08-01T16:04:37;3.70;;;1.30;;
24206;SDS011;12351;52.284;9.160;2023-08-01T16:07:23;3.10;;;1.40;;
24206;SDS011;12351;52.284;9.160;2023-08-01T16:10:10;3.83;;;1.27;;
24206;SDS011;12351;52.284;9.160;2023-08-01T16:12:57;1.80;;;1.20;;
24206;SDS011;12351;52.284;9.160;2023-08-01T16:15:44;2.87;;;1.20;;
24206;SDS011;12351;52.284;9.160;2023-08-01T16:18:30;3.37;;;1.40;;
24206;SDS011;12351;52.284;9.160;2023-08-01T16:21:17;3.37;;;1.40;;
24206;SDS011;12351;52.284;9.160;2023-08-01T16:24:04;2.50;;;1.07;;
24206;SDS011;12351;52.284;9.160;2023-08-01T16:26:51;2.50;;;1.20;;
24206;SDS011;12351;52.284;9.160;2023-08-01T16:29:38;3.30;;;1.07;;
24206;SDS011;12351;52.284;9.160;2023-08-01T16:32:25;3.23;;;1.20;;
24206;SDS011;12351;52.284;9.160;2023-08-01T16:35:12;2.40;;;1.00;;
24206;SDS011;12351;52.284;9.160;2023-08-01T16:37:59;4.33;;;1.13;;
24206;SDS011;12351;52.284;9.160;2023-08-01T16:40:46;2.27;;;1.03;;
24206;SDS011;12351;52.284;9.160;2023-08-01T16:43:33;2.87;;;1.23;;
24206;SDS011;12351;52.284;9.160;2023-08-01T16:46:20;3.80;;;1.23;;
24206;SDS011;12351;52.284;9.160;2023-08-01T16:49:07;1.50;;;1.00;;
24206;SDS011;12351;52.284;9.160;2023-08-01T16:51:54;3.87;;;1.10;;
24206;SDS011;12351;52.284;9.160;2023-08-01T16:54:40;2.27;;;1.27;;
24206;SDS011;12351;52.284;9.160;2023-08-01T16:57:27;2.30;;;1.10;;
24206;SDS011;12351;52.284;9.160;2023-08-01T17:00:14;3.93;;;1.13;;
24206;SDS011;12351;52.284;9.160;2023-08-01T17:03:01;2.53;;;1.10;;
24206;SDS011;12351;52.284;9.160;2023-08-01T17:05:48;1.93;;;1.00;;
24206;SDS011;12351;52.284;9.160;2023-08-01T17:08:35;1.77;;;1.03;;
24206;SDS011;12351;52.284;9.160;2023-08-01T17:11:22;2.70;;;1.20;;
24206;SDS011;12351;52.284;9.160;2023-08-01T17:14:08;4.43;;;1.10;;
24206;SDS011;12351;52.284;9.160;2023-08-01T17:16:55;2.30;;;1.03;;
24206;SDS011;12351;52.284;9.160;2023-08-01T17:19:47;4.10;;;1.20;;
24206;SDS011;12351;52.284;9.160;2023-08-01T17:22:37;1.60;;;1.00;;